sensor_id;sensor_type;location;lat;lon;timestamp;pressure;altitude;pressure_sealevel;temperature;humidity
35892;BME280;21993;42.672;23.296;2023-01-15T00:00:13;95141.84;;;7.24;64.42
35892;BME280;21993;42.672;23.296;2023-01-15T00:02:39;95132.78;;;7.17;64.30
35892;BME280;21993;42.672;23.296;2023-01-15T00:05:05;95144.47;;;7.24;64.25
35892;BME280;21993;42.672;23.296;2023-01-15T00:07:30;95134.03;;;7.24;64.07
35892;BME280;21993;42.672;23.296;2023-01-15T00:09:56;95133.38;;;7.20;64.25
35892;BME280;21993;42.672;23.296;2023-01-15T00:12:22;95137.56;;;7.23;63.70
35892;BME280;21993;42.672;23.296;2023-01-15T00:14:47;95137.56;;;7.23;64.10
35892;BME280;21993;42.672;23.296;2023-01-15T00:17:13;95134.94;;;7.23;64.02
35892;BME280;21993;42.672;23.296;2023-01-15T00:19:38;95133.28;;;7.22;64.24
35892;BME280;21993;42.672;23.296;2023-01-15T00:22:03;95130.03;;;7.05;64.12
35892;BME280;21993;42.672;23.296;2023-01-15T00:24:29;95134.84;;;7.12;63.85
35892;BME280;21993;42.672;23.296;2023-01-15T00:27:13;95134.13;;;7.10;64.11
35892;BME280;21993;42.672;23.296;2023-01-15T00:29:57;95139.56;;;7.07;64.55
35892;BME280;21993;42.672;23.296;2023-01-15T00:32:22;95128.78;;;7.11;64.28
35892;BME280;21993;42.672;23.296;2023-01-15T00:34:51;95133.59;;;7.04;64.25
35892;BME280;21993;42.672;23.296;2023-01-15T00:37:16;95130.56;;;7.11;63.94
35892;BME280;21993;42.672;23.296;2023-01-15T00:39:42;95137.34;;;7.13;64.07
35892;BME280;21993;42.672;23.296;2023-01-15T00:42:08;95137.16;;;7.16;64.05
35892;BME280;21993;42.672;23.296;2023-01-15T00:44:34;95135.50;;;7.15;64.47
35892;BME280;21993;42.672;23.296;2023-01-15T00:47:00;95135.19;;;7.07;64.24
35892;BME280;21993;42.672;23.296;2023-01-15T00:49:26;95130.47;;;6.99;64.69
35892;BME280;21993;42.672;23.296;2023-01-15T00:51:51;95126.78;;;6.89;65.25
35892;BME280;21993;42.672;23.296;2023-01-15T00:54:17;95127.22;;;6.96;64.73
35892;BME280;21993;42.672;23.296;2023-01-15T00:56:42;95129.81;;;6.96;64.96
35892;BME280;21993;42.672;23.296;2023-01-15T00:59:07;95126.38;;;6.95;65.85
35892;BME280;21993;42.672;23.296;2023-01-15T01:01:33;95134.53;;;7.03;65.22
35892;BME280;21993;42.672;23.296;2023-01-15T01:03:58;95122.00;;;7.09;64.34
35892;BME280;21993;42.672;23.296;2023-01-15T01:06:24;95136.09;;;7.06;64.44
35892;BME280;21993;42.672;23.296;2023-01-15T01:08:50;95131.91;;;7.03;64.85
35892;BME280;21993;42.672;23.296;2023-01-15T01:11:18;95120.34;;;7.08;64.75
35892;BME280;21993;42.672;23.296;2023-01-15T01:13:45;95118.88;;;7.03;64.06
35892;BME280;21993;42.672;23.296;2023-01-15T01:18:50;95126.69;;;7.03;64.72
35892;BME280;21993;42.672;23.296;2023-01-15T01:21:16;95124.91;;;7.04;64.68
35892;BME280;21993;42.672;23.296;2023-01-15T01:23:42;95119.59;;;7.05;64.89
35892;BME280;21993;42.672;23.296;2023-01-15T01:26:07;95121.47;;;7.03;64.69
35892;BME280;21993;42.672;23.296;2023-01-15T01:28:34;95116.47;;;7.00;65.22
35892;BME280;21993;42.672;23.296;2023-01-15T01:30:59;95112.19;;;6.99;64.93
35892;BME280;21993;42.672;23.296;2023-01-15T01:33:24;95112.09;;;7.01;64.93
35892;BME280;21993;42.672;23.296;2023-01-15T01:35:50;95110.72;;;6.95;64.90
35892;BME280;21993;42.672;23.296;2023-01-15T01:38:15;95120.03;;;6.99;65.33
35892;BME280;21993;42.672;23.296;2023-01-15T01:40:41;95114.81;;;6.99;64.66
35892;BME280;21993;42.672;23.296;2023-01-15T01:43:22;95122.41;;;7.02;64.84
35892;BME280;21993;42.672;23.296;2023-01-15T01:45:48;95112.41;;;7.09;65.06
35892;BME280;21993;42.672;23.296;2023-01-15T01:48:14;95105.19;;;7.13;64.79
35892;BME280;21993;42.672;23.296;2023-01-15T01:50:42;95106.84;;;7.14;65.01
35892;BME280;21993;42.672;23.296;2023-01-15T01:53:13;95116.47;;;7.13;64.26
35892;BME280;21993;42.672;23.296;2023-01-15T01:55:42;95120.53;;;7.04;65.26
35892;BME280;21993;42.672;23.296;2023-01-15T01:58:08;95110.72;;;6.95;65.43
35892;BME280;21993;42.672;23.296;2023-01-15T02:00:35;95115.50;;;6.89;66.25
35892;BME280;21993;42.672;23.296;2023-01-15T02:03:04;95114.06;;;6.85;66.42
35892;BME280;21993;42.672;23.296;2023-01-15T02:05:36;95116.06;;;6.94;65.95
35892;BME280;21993;42.672;23.296;2023-01-15T02:08:03;95110.09;;;7.04;65.48
35892;BME280;21993;42.672;23.296;2023-01-15T02:10:29;95111.25;;;7.00;65.19
35892;BME280;21993;42.672;23.296;2023-01-15T02:13:00;95111.38;;;6.99;65.48
35892;BME280;21993;42.672;23.296;2023-01-15T02:15:32;95105.00;;;6.90;65.91
35892;BME280;21993;42.672;23.296;2023-01-15T02:18:28;95101.34;;;6.93;66.41
35892;BME280;21993;42.672;23.296;2023-01-15T02:20:55;95107.94;;;6.98;65.70
35892;BME280;21993;42.672;23.296;2023-01-15T02:23:53;95104.66;;;6.95;65.55
35892;BME280;21993;42.672;23.296;2023-01-15T02:28:50;95101.97;;;6.84;66.14
35892;BME280;21993;42.672;23.296;2023-01-15T02:31:35;95096.44;;;7.01;65.51
35892;BME280;21993;42.672;23.296;2023-01-15T02:34:12;95094.03;;;6.85;65.54
35892;BME280;21993;42.672;23.296;2023-01-15T02:36:43;95097.56;;;6.84;65.87
35892;BME280;21993;42.672;23.296;2023-01-15T02:39:11;95092.25;;;6.86;66.10
35892;BME280;21993;42.672;23.296;2023-01-15T02:41:46;95084.31;;;7.00;65.66
35892;BME280;21993;42.672;23.296;2023-01-15T02:44:15;95082.66;;;6.99;65.57
35892;BME280;21993;42.672;23.296;2023-01-15T02:46:43;95084.75;;;6.94;65.68
35892;BME280;21993;42.672;23.296;2023-01-15T02:49:13;95086.28;;;6.96;65.84
35892;BME280;21993;42.672;23.296;2023-01-15T02:51:58;95081.91;;;6.97;65.41
35892;BME280;21993;42.672;23.296;2023-01-15T02:54:27;95089.75;;;6.97;65.87
35892;BME280;21993;42.672;23.296;2023-01-15T02:56:56;95079.09;;;7.00;65.90
35892;BME280;21993;42.672;23.296;2023-01-15T02:59:28;95082.56;;;7.00;65.61
35892;BME280;21993;42.672;23.296;2023-01-15T03:02:00;95075.56;;;7.01;66.56
35892;BME280;21993;42.672;23.296;2023-01-15T03:04:31;95087.97;;;6.97;66.45
35892;BME280;21993;42.672;23.296;2023-01-15T03:07:22;95083.16;;;7.04;65.92
35892;BME280;21993;42.672;23.296;2023-01-15T03:09:50;95079.09;;;7.00;66.33
35892;BME280;21993;42.672;23.296;2023-01-15T03:15:24;95095.50;;;7.02;65.38
35892;BME280;21993;42.672;23.296;2023-01-15T03:18:12;95093.63;;;6.91;65.81
35892;BME280;21993;42.672;23.296;2023-01-15T03:20:43;95096.31;;;7.02;65.81
35892;BME280;21993;42.672;23.296;2023-01-15T03:23:13;95094.66;;;7.01;65.54
35892;BME280;21993;42.672;23.296;2023-01-15T03:25:44;95088.50;;;7.02;65.69
35892;BME280;21993;42.672;23.296;2023-01-15T03:28:11;95095.59;;;7.00;65.19
35892;BME280;21993;42.672;23.296;2023-01-15T03:30:38;95088.59;;;7.01;65.26
35892;BME280;21993;42.672;23.296;2023-01-15T03:33:04;95098.09;;;7.02;64.47
35892;BME280;21993;42.672;23.296;2023-01-15T03:35:49;95096.53;;;6.99;64.66
35892;BME280;21993;42.672;23.296;2023-01-15T03:38:20;95097.06;;;6.92;64.30
35892;BME280;21993;42.672;23.296;2023-01-15T03:43:30;95094.34;;;6.93;64.45
35892;BME280;21993;42.672;23.296;2023-01-15T03:46:13;95096.22;;;6.91;64.08
35892;BME280;21993;42.672;23.296;2023-01-15T03:52:01;95096.94;;;6.93;64.31
35892;BME280;21993;42.672;23.296;2023-01-15T03:57:56;95090.78;;;6.94;64.04
35892;BME280;21993;42.672;23.296;2023-01-15T04:00:35;95089.84;;;7.08;62.99
35892;BME280;21993;42.672;23.296;2023-01-15T04:03:00;95088.38;;;7.04;63.63
35892;BME280;21993;42.672;23.296;2023-01-15T04:05:28;95087.88;;;6.99;63.87
35892;BME280;21993;42.672;23.296;2023-01-15T04:07:56;95091.50;;;6.96;63.82
35892;BME280;21993;42.672;23.296;2023-01-15T04:10:22;95088.06;;;6.96;64.38
35892;BME280;21993;42.672;23.296;2023-01-15T04:12:48;95086.28;;;6.96;63.63
35892;BME280;21993;42.672;23.296;2023-01-15T04:15:14;95071.56;;;6.95;63.49
35892;BME280;21993;42.672;23.296;2023-01-15T04:17:40;95085.91;;;6.90;63.61
35892;BME280;21993;42.672;23.296;2023-01-15T04:20:06;95091.13;;;6.90;64.18
35892;BME280;21993;42.672;23.296;2023-01-15T04:22:32;95089.84;;;6.95;63.70
35892;BME280;21993;42.672;23.296;2023-01-15T04:24:57;95096.13;;;6.93;63.67
35892;BME280;21993;42.672;23.296;2023-01-15T04:27:23;95097.28;;;7.01;63.41
35892;BME280;21993;42.672;23.296;2023-01-15T04:29:48;95090.56;;;6.97;63.81
35892;BME280;21993;42.672;23.296;2023-01-15T04:32:14;95095.78;;;6.97;63.35
35892;BME280;21993;42.672;23.296;2023-01-15T04:34:40;95098.00;;;7.03;63.14
35892;BME280;21993;42.672;23.296;2023-01-15T04:37:05;95085.16;;;7.00;63.18
35892;BME280;21993;42.672;23.296;2023-01-15T04:39:31;95095.78;;;6.97;63.04
35892;BME280;21993;42.672;23.296;2023-01-15T04:41:57;95093.09;;;6.99;62.74
35892;BME280;21993;42.672;23.296;2023-01-15T04:44:54;95100.50;;;6.92;63.19
35892;BME280;21993;42.672;23.296;2023-01-15T04:47:20;95097.91;;;6.92;63.26
35892;BME280;21993;42.672;23.296;2023-01-15T04:49:45;95097.69;;;6.83;64.13
35892;BME280;21993;42.672;23.296;2023-01-15T04:52:11;95101.75;;;6.74;64.29
35892;BME280;21993;42.672;23.296;2023-01-15T04:54:36;95099.94;;;6.62;64.57
35892;BME280;21993;42.672;23.296;2023-01-15T04:57:03;95103.72;;;6.70;64.79
35892;BME280;21993;42.672;23.296;2023-01-15T04:59:29;95106.66;;;6.66;64.89
35892;BME280;21993;42.672;23.296;2023-01-15T05:01:54;95111.03;;;6.65;65.30
35892;BME280;21993;42.672;23.296;2023-01-15T05:04:20;95109.25;;;6.66;65.56
35892;BME280;21993;42.672;23.296;2023-01-15T05:06:46;95096.41;;;6.63;65.49
35892;BME280;21993;42.672;23.296;2023-01-15T05:09:11;95108.38;;;6.53;65.79
35892;BME280;21993;42.672;23.296;2023-01-15T05:11:38;95107.97;;;6.59;65.67
35892;BME280;21993;42.672;23.296;2023-01-15T05:14:05;95112.69;;;6.66;65.60
35892;BME280;21993;42.672;23.296;2023-01-15T05:16:31;95110.19;;;6.65;65.81
35892;BME280;21993;42.672;23.296;2023-01-15T05:18:59;95099.09;;;6.48;65.40
35892;BME280;21993;42.672;23.296;2023-01-15T05:21:29;95113.09;;;6.47;65.45
35892;BME280;21993;42.672;23.296;2023-01-15T05:23:56;95110.38;;;6.49;65.84
35892;BME280;21993;42.672;23.296;2023-01-15T05:26:23;95107.31;;;6.42;65.83
35892;BME280;21993;42.672;23.296;2023-01-15T05:28:52;95107.72;;;6.36;65.95
35892;BME280;21993;42.672;23.296;2023-01-15T05:31:18;95105.09;;;6.36;65.85
35892;BME280;21993;42.672;23.296;2023-01-15T05:33:45;95114.41;;;6.40;65.69
35892;BME280;21993;42.672;23.296;2023-01-15T05:36:23;95116.19;;;6.40;66.14
35892;BME280;21993;42.672;23.296;2023-01-15T05:38:49;95113.25;;;6.44;66.03
35892;BME280;21993;42.672;23.296;2023-01-15T05:41:17;95106.94;;;6.21;66.53
35892;BME280;21993;42.672;23.296;2023-01-15T05:44:04;95101.53;;;6.25;66.92
35892;BME280;21993;42.672;23.296;2023-01-15T05:46:32;95113.25;;;6.32;66.55
35892;BME280;21993;42.672;23.296;2023-01-15T05:49:02;95118.84;;;6.26;66.62
35892;BME280;21993;42.672;23.296;2023-01-15T05:51:28;95124.16;;;6.24;66.80
35892;BME280;21993;42.672;23.296;2023-01-15T05:53:55;95114.69;;;6.23;66.47
35892;BME280;21993;42.672;23.296;2023-01-15T05:56:20;95116.88;;;6.29;66.10
35892;BME280;21993;42.672;23.296;2023-01-15T05:58:46;95125.00;;;6.25;66.38
35892;BME280;21993;42.672;23.296;2023-01-15T06:01:11;95116.25;;;6.26;66.04
35892;BME280;21993;42.672;23.296;2023-01-15T06:03:37;95128.63;;;6.22;66.10
35892;BME280;21993;42.672;23.296;2023-01-15T06:06:03;95126.44;;;6.16;65.69
35892;BME280;21993;42.672;23.296;2023-01-15T06:08:29;95125.88;;;6.11;66.11
35892;BME280;21993;42.672;23.296;2023-01-15T06:10:55;95128.09;;;6.17;66.26
35892;BME280;21993;42.672;23.296;2023-01-15T06:13:20;95127.91;;;6.20;66.42
35892;BME280;21993;42.672;23.296;2023-01-15T06:15:46;95126.13;;;6.20;65.76
35892;BME280;21993;42.672;23.296;2023-01-15T06:18:11;95122.22;;;6.13;65.95
35892;BME280;21993;42.672;23.296;2023-01-15T06:20:38;95113.41;;;6.16;65.69
35892;BME280;21993;42.672;23.296;2023-01-15T06:23:04;95115.28;;;6.14;65.90
35892;BME280;21993;42.672;23.296;2023-01-15T06:25:32;95119.56;;;6.15;66.34
35892;BME280;21993;42.672;23.296;2023-01-15T06:27:59;95120.50;;;6.14;66.45
35892;BME280;21993;42.672;23.296;2023-01-15T06:30:24;95117.34;;;6.09;66.46
35892;BME280;21993;42.672;23.296;2023-01-15T06:32:50;95116.94;;;6.15;66.50
35892;BME280;21993;42.672;23.296;2023-01-15T06:35:15;95114.50;;;6.12;67.26
35892;BME280;21993;42.672;23.296;2023-01-15T06:37:41;95107.75;;;6.09;66.98
35892;BME280;21993;42.672;23.296;2023-01-15T06:40:07;95123.00;;;6.15;66.30
35892;BME280;21993;42.672;23.296;2023-01-15T06:42:33;95119.34;;;6.18;66.28
35892;BME280;21993;42.672;23.296;2023-01-15T06:45:17;95117.69;;;6.17;66.25
35892;BME280;21993;42.672;23.296;2023-01-15T06:48:00;95117.88;;;6.14;66.47
35892;BME280;21993;42.672;23.296;2023-01-15T06:50:26;95119.06;;;6.23;65.75
35892;BME280;21993;42.672;23.296;2023-01-15T06:52:51;95120.91;;;6.20;65.83
35892;BME280;21993;42.672;23.296;2023-01-15T06:55:17;95120.19;;;6.18;66.25
35892;BME280;21993;42.672;23.296;2023-01-15T06:57:43;95120.28;;;6.17;66.33
35892;BME280;21993;42.672;23.296;2023-01-15T07:00:10;95112.97;;;6.22;66.06
35892;BME280;21993;42.672;23.296;2023-01-15T07:02:36;95112.50;;;6.30;65.93
35892;BME280;21993;42.672;23.296;2023-01-15T07:05:02;95112.44;;;5.90;66.79
35892;BME280;21993;42.672;23.296;2023-01-15T07:07:28;95122.47;;;5.96;66.75
35892;BME280;21993;42.672;23.296;2023-01-15T07:09:54;95115.84;;;6.05;66.00
35892;BME280;21993;42.672;23.296;2023-01-15T07:12:19;95120.50;;;6.14;66.34
35892;BME280;21993;42.672;23.296;2023-01-15T07:14:45;95113.06;;;6.08;66.25
35892;BME280;21993;42.672;23.296;2023-01-15T07:17:11;95121.22;;;6.16;66.22
35892;BME280;21993;42.672;23.296;2023-01-15T07:19:36;95125.00;;;6.25;66.32
35892;BME280;21993;42.672;23.296;2023-01-15T07:22:02;95124.94;;;6.12;66.21
35892;BME280;21993;42.672;23.296;2023-01-15T07:24:28;95125.09;;;6.23;65.66
35892;BME280;21993;42.672;23.296;2023-01-15T07:26:53;95134.78;;;6.21;66.23
35892;BME280;21993;42.672;23.296;2023-01-15T07:29:19;95125.25;;;6.34;65.80
35892;BME280;21993;42.672;23.296;2023-01-15T07:31:45;95132.00;;;6.37;65.78
35892;BME280;21993;42.672;23.296;2023-01-15T07:34:11;95135.06;;;6.43;65.00
35892;BME280;21993;42.672;23.296;2023-01-15T07:36:36;95132.91;;;6.50;65.77
35892;BME280;21993;42.672;23.296;2023-01-15T07:39:07;95138.13;;;6.50;65.22
35892;BME280;21993;42.672;23.296;2023-01-15T07:41:33;95135.41;;;6.52;64.71
35892;BME280;21993;42.672;23.296;2023-01-15T07:44:16;95136.84;;;6.56;64.79
35892;BME280;21993;42.672;23.296;2023-01-15T07:47:01;95137.63;;;6.58;65.17
35892;BME280;21993;42.672;23.296;2023-01-15T07:49:45;95128.03;;;6.71;64.65
35892;BME280;21993;42.672;23.296;2023-01-15T07:52:19;95118.66;;;6.81;64.22
35892;BME280;21993;42.672;23.296;2023-01-15T07:54:45;95124.09;;;6.91;64.04
35892;BME280;21993;42.672;23.296;2023-01-15T07:57:13;95120.66;;;7.16;62.85
35892;BME280;21993;42.672;23.296;2023-01-15T07:59:40;95119.19;;;7.24;62.70
35892;BME280;21993;42.672;23.296;2023-01-15T08:02:06;95117.28;;;7.39;62.28
35892;BME280;21993;42.672;23.296;2023-01-15T08:04:31;95113.63;;;7.42;61.63
35892;BME280;21993;42.672;23.296;2023-01-15T08:07:01;95110.25;;;7.65;61.17
35892;BME280;21993;42.672;23.296;2023-01-15T08:09:27;95120.34;;;7.82;60.00
35892;BME280;21993;42.672;23.296;2023-01-15T08:11:52;95116.34;;;7.89;60.02
35892;BME280;21993;42.672;23.296;2023-01-15T08:14:36;95121.97;;;7.96;58.97
35892;BME280;21993;42.672;23.296;2023-01-15T08:17:21;95112.75;;;8.03;59.23
35892;BME280;21993;42.672;23.296;2023-01-15T08:19:46;95120.72;;;8.26;58.62
35892;BME280;21993;42.672;23.296;2023-01-15T08:22:12;95128.75;;;8.35;58.31
35892;BME280;21993;42.672;23.296;2023-01-15T08:24:37;95124.50;;;8.45;58.54
35892;BME280;21993;42.672;23.296;2023-01-15T08:27:03;95129.16;;;8.77;56.97
35892;BME280;21993;42.672;23.296;2023-01-15T08:29:28;95131.66;;;8.79;56.83
35892;BME280;21993;42.672;23.296;2023-01-15T08:31:54;95132.31;;;8.93;56.54
35892;BME280;21993;42.672;23.296;2023-01-15T08:34:19;95132.06;;;9.08;55.26
35892;BME280;21993;42.672;23.296;2023-01-15T08:36:45;95128.03;;;9.15;54.53
35892;BME280;21993;42.672;23.296;2023-01-15T08:39:10;95135.31;;;9.00;55.49
35892;BME280;21993;42.672;23.296;2023-01-15T08:41:36;95134.09;;;8.93;54.83
35892;BME280;21993;42.672;23.296;2023-01-15T08:44:01;95134.44;;;8.99;54.58
35892;BME280;21993;42.672;23.296;2023-01-15T08:46:27;95131.94;;;8.98;54.95
35892;BME280;21993;42.672;23.296;2023-01-15T08:48:52;95123.94;;;8.88;55.33
35892;BME280;21993;42.672;23.296;2023-01-15T08:51:18;95126.19;;;8.82;56.00
35892;BME280;21993;42.672;23.296;2023-01-15T08:53:44;95127.78;;;8.95;55.11
35892;BME280;21993;42.672;23.296;2023-01-15T08:56:17;95131.03;;;9.10;54.93
35892;BME280;21993;42.672;23.296;2023-01-15T08:58:44;95124.72;;;9.13;54.50
35892;BME280;21993;42.672;23.296;2023-01-15T09:01:10;95129.50;;;9.19;54.98
35892;BME280;21993;42.672;23.296;2023-01-15T09:03:42;95129.38;;;9.20;54.53
35892;BME280;21993;42.672;23.296;2023-01-15T09:06:08;95131.63;;;9.14;55.06
35892;BME280;21993;42.672;23.296;2023-01-15T09:08:35;95126.41;;;9.25;54.53
35892;BME280;21993;42.672;23.296;2023-01-15T09:11:02;95124.88;;;9.45;53.69
35892;BME280;21993;42.672;23.296;2023-01-15T09:13:29;95116.63;;;9.49;53.12
35892;BME280;21993;42.672;23.296;2023-01-15T09:16:01;95118.34;;;9.50;53.94
35892;BME280;21993;42.672;23.296;2023-01-15T09:18:28;95124.75;;;9.69;52.78
35892;BME280;21993;42.672;23.296;2023-01-15T09:20:53;95109.59;;;9.72;52.76
35892;BME280;21993;42.672;23.296;2023-01-15T09:23:19;95115.56;;;9.63;52.92
35892;BME280;21993;42.672;23.296;2023-01-15T09:25:56;95105.22;;;9.84;53.15
35892;BME280;21993;42.672;23.296;2023-01-15T09:28:21;95103.41;;;9.84;52.79
35892;BME280;21993;42.672;23.296;2023-01-15T09:30:47;95096.00;;;10.01;52.29
35892;BME280;21993;42.672;23.296;2023-01-15T09:33:12;95092.69;;;9.65;53.38
35892;BME280;21993;42.672;23.296;2023-01-15T09:35:38;95085.53;;;9.78;52.83
35892;BME280;21993;42.672;23.296;2023-01-15T09:38:04;95089.19;;;9.98;52.12
35892;BME280;21993;42.672;23.296;2023-01-15T09:45:55;95084.13;;;9.63;53.29
35892;BME280;21993;42.672;23.296;2023-01-15T09:51:41;95078.75;;;9.65;52.66
35892;BME280;21993;42.672;23.296;2023-01-15T09:57:16;95053.06;;;9.58;53.16
35892;BME280;21993;42.672;23.296;2023-01-15T09:59:45;95046.59;;;9.63;52.91
35892;BME280;21993;42.672;23.296;2023-01-15T10:05:08;95046.53;;;9.42;53.90
35892;BME280;21993;42.672;23.296;2023-01-15T10:08:05;95040.16;;;9.67;53.61
35892;BME280;21993;42.672;23.296;2023-01-15T10:10:46;95027.16;;;9.65;53.64
35892;BME280;21993;42.672;23.296;2023-01-15T10:13:34;95022.94;;;9.42;54.42
35892;BME280;21993;42.672;23.296;2023-01-15T10:16:04;95023.19;;;9.27;54.93
35892;BME280;21993;42.672;23.296;2023-01-15T10:18:30;95013.03;;;9.23;55.73
35892;BME280;21993;42.672;23.296;2023-01-15T10:29:17;95002.94;;;9.07;56.52
35892;BME280;21993;42.672;23.296;2023-01-15T10:37:13;94983.03;;;9.16;56.24
35892;BME280;21993;42.672;23.296;2023-01-15T10:45:21;94970.41;;;9.32;55.66
35892;BME280;21993;42.672;23.296;2023-01-15T10:47:53;94959.94;;;9.43;55.58
35892;BME280;21993;42.672;23.296;2023-01-15T10:50:25;94961.84;;;9.30;55.45
35892;BME280;21993;42.672;23.296;2023-01-15T10:56:12;94950.09;;;9.02;56.36
35892;BME280;21993;42.672;23.296;2023-01-15T10:58:48;94949.56;;;9.42;55.42
35892;BME280;21993;42.672;23.296;2023-01-15T11:01:18;94941.38;;;9.35;55.12
35892;BME280;21993;42.672;23.296;2023-01-15T11:03:48;94939.31;;;9.39;55.53
35892;BME280;21993;42.672;23.296;2023-01-15T11:06:15;94938.13;;;9.43;55.84
35892;BME280;21993;42.672;23.296;2023-01-15T11:08:44;94930.19;;;9.65;55.05
35892;BME280;21993;42.672;23.296;2023-01-15T11:11:21;94918.66;;;9.88;54.00
35892;BME280;21993;42.672;23.296;2023-01-15T11:14:07;94916.91;;;10.31;53.03
35892;BME280;21993;42.672;23.296;2023-01-15T11:16:51;94919.69;;;10.29;52.62
35892;BME280;21993;42.672;23.296;2023-01-15T11:19:37;94909.56;;;10.46;51.94
35892;BME280;21993;42.672;23.296;2023-01-15T11:22:16;94917.84;;;10.71;51.46
35892;BME280;21993;42.672;23.296;2023-01-15T11:24:56;94910.47;;;10.96;51.39
35892;BME280;21993;42.672;23.296;2023-01-15T11:27:32;94908.19;;;11.22;50.24
35892;BME280;21993;42.672;23.296;2023-01-15T11:30:00;94907.50;;;11.20;50.34
35892;BME280;21993;42.672;23.296;2023-01-15T11:32:35;94898.00;;;11.57;49.60
35892;BME280;21993;42.672;23.296;2023-01-15T11:35:13;94885.75;;;11.97;49.25
35892;BME280;21993;42.672;23.296;2023-01-15T11:37:40;94885.41;;;12.29;48.73
35892;BME280;21993;42.672;23.296;2023-01-15T11:40:19;94881.78;;;12.39;48.69
35892;BME280;21993;42.672;23.296;2023-01-15T11:42:49;94878.38;;;12.66;48.08
35892;BME280;21993;42.672;23.296;2023-01-15T11:45:33;94876.38;;;12.88;47.39
35892;BME280;21993;42.672;23.296;2023-01-15T11:48:20;94873.19;;;13.21;46.43
35892;BME280;21993;42.672;23.296;2023-01-15T11:53:37;94870.03;;;13.36;46.58
35892;BME280;21993;42.672;23.296;2023-01-15T11:56:05;94857.16;;;13.50;45.15
35892;BME280;21993;42.672;23.296;2023-01-15T12:01:12;94854.81;;;14.01;44.56
35892;BME280;21993;42.672;23.296;2023-01-15T12:03:40;94854.84;;;14.27;43.93
35892;BME280;21993;42.672;23.296;2023-01-15T12:06:09;94853.88;;;14.54;43.32
35892;BME280;21993;42.672;23.296;2023-01-15T12:19:28;94842.00;;;14.32;43.43
35892;BME280;21993;42.672;23.296;2023-01-15T12:36:37;94825.97;;;14.85;42.42
35892;BME280;21993;42.672;23.296;2023-01-15T12:42:09;94824.59;;;15.07;42.35
35892;BME280;21993;42.672;23.296;2023-01-15T12:44:57;94816.34;;;15.18;42.29
35892;BME280;21993;42.672;23.296;2023-01-15T12:50:03;94818.06;;;15.52;41.77
35892;BME280;21993;42.672;23.296;2023-01-15T12:52:36;94816.97;;;15.79;41.08
35892;BME280;21993;42.672;23.296;2023-01-15T12:55:14;94801.44;;;15.76;41.16
35892;BME280;21993;42.672;23.296;2023-01-15T12:57:52;94805.28;;;15.23;42.15
35892;BME280;21993;42.672;23.296;2023-01-15T13:00:31;94804.13;;;15.26;42.03
35892;BME280;21993;42.672;23.296;2023-01-15T13:05:57;94790.06;;;14.41;43.62
35892;BME280;21993;42.672;23.296;2023-01-15T13:11:02;94799.53;;;13.56;45.65
35892;BME280;21993;42.672;23.296;2023-01-15T13:13:29;94794.22;;;13.20;46.41
35892;BME280;21993;42.672;23.296;2023-01-15T13:21:12;94791.25;;;12.78;47.45
35892;BME280;21993;42.672;23.296;2023-01-15T13:36:58;94775.53;;;11.65;49.79
35892;BME280;21993;42.672;23.296;2023-01-15T13:39:36;94768.25;;;11.39;50.48
35892;BME280;21993;42.672;23.296;2023-01-15T13:42:03;94775.00;;;11.42;50.71
35892;BME280;21993;42.672;23.296;2023-01-15T13:44:50;94775.00;;;11.42;50.84
35892;BME280;21993;42.672;23.296;2023-01-15T13:47:22;94778.03;;;11.18;51.18
35892;BME280;21993;42.672;23.296;2023-01-15T13:49:54;94776.38;;;11.17;51.54
35892;BME280;21993;42.672;23.296;2023-01-15T13:52:27;94776.22;;;10.99;51.57
35892;BME280;21993;42.672;23.296;2023-01-15T13:54:57;94775.41;;;10.89;51.72
35892;BME280;21993;42.672;23.296;2023-01-15T13:57:35;94774.09;;;10.64;52.34
35892;BME280;21993;42.672;23.296;2023-01-15T14:00:04;94781.16;;;10.73;52.43
35892;BME280;21993;42.672;23.296;2023-01-15T14:02:32;94765.56;;;10.81;52.46
35892;BME280;21993;42.672;23.296;2023-01-15T14:04:59;94763.91;;;10.80;52.05
35892;BME280;21993;42.672;23.296;2023-01-15T14:07:34;94758.50;;;10.72;53.07
35892;BME280;21993;42.672;23.296;2023-01-15T14:15:18;94762.44;;;10.47;53.52
35892;BME280;21993;42.672;23.296;2023-01-15T14:26:46;94765.44;;;10.33;53.70
35892;BME280;21993;42.672;23.296;2023-01-15T14:34:42;94766.72;;;10.48;54.03
35892;BME280;21993;42.672;23.296;2023-01-15T14:39:51;94769.25;;;10.59;53.00
35892;BME280;21993;42.672;23.296;2023-01-15T14:45:07;94764.81;;;10.20;53.75
35892;BME280;21993;42.672;23.296;2023-01-15T14:47:51;94764.25;;;9.85;54.45
35892;BME280;21993;42.672;23.296;2023-01-15T14:56:13;94763.03;;;9.99;54.98
35892;BME280;21993;42.672;23.296;2023-01-15T15:01:36;94762.97;;;9.80;55.33
35892;BME280;21993;42.672;23.296;2023-01-15T15:04:14;94758.72;;;9.88;55.06
35892;BME280;21993;42.672;23.296;2023-01-15T15:06:56;94766.09;;;9.95;55.48
35892;BME280;21993;42.672;23.296;2023-01-15T15:09:32;94765.63;;;9.90;55.33
35892;BME280;21993;42.672;23.296;2023-01-15T15:23:30;94771.66;;;9.80;55.86
35892;BME280;21993;42.672;23.296;2023-01-15T15:26:04;94772.06;;;9.76;55.98
35892;BME280;21993;42.672;23.296;2023-01-15T15:28:30;94763.41;;;9.64;56.19
35892;BME280;21993;42.672;23.296;2023-01-15T15:30:57;94761.78;;;9.42;57.45
35892;BME280;21993;42.672;23.296;2023-01-15T15:33:40;94767.41;;;9.58;57.20
35892;BME280;21993;42.672;23.296;2023-01-15T15:36:07;94763.81;;;9.59;56.64
35892;BME280;21993;42.672;23.296;2023-01-15T15:38:33;94767.31;;;9.28;58.08
35892;BME280;21993;42.672;23.296;2023-01-15T15:41:00;94762.28;;;9.36;57.96
35892;BME280;21993;42.672;23.296;2023-01-15T15:43:48;94777.31;;;8.59;59.51
35892;BME280;21993;42.672;23.296;2023-01-15T15:46:34;94777.63;;;8.77;59.87
35892;BME280;21993;42.672;23.296;2023-01-15T15:49:19;94764.66;;;8.75;59.59
35892;BME280;21993;42.672;23.296;2023-01-15T15:51:45;94773.56;;;8.84;60.25